Evercreech, United Kingdom
Current Conditions -  °F | °C
As of 10:50 PM on Friday 28 Nov 2014 (Local Time) from EGDY Reporting Station
Haze Haze  
Wind Chill: 50°   Ceiling: 14000
Heat Index: 50°   Visibility: 5mi
Dew Point: 48°   Wind: 5mph
Humidity: 94%   Direction: 40°NE
Pressure: 29.65"   Gusts: NA
Location:  51.15°N, 2.51°W
Report Text: EGDY 282250Z AUTO 04004KT 8000 BR FEW080/// BKN140/// 10/09 Q1004
Loading
Personal Weather Stations






























Interactive Weather Map New forecast layout! Learn more

10-Day Weather Forecast

Advertisements
Track Severe Weather on mobile